Time;durP1;ratioP1;P1;durP2;ratioP2;P2;SDS_P1;SDS_P2;PMS_P1;PMS_P2;Temp;Humidity;BMP_temperature;BMP_pressure;BME280_temperature;BME280_humidity;BME280_pressure;Samples;Min_cycle;Max_cycle;Signal;HPM_P1;HPM_P2
2021/08/19 00:01:20;;;;;;;;;;;17.10;99.90;;;16.14;84.84;95730.50;10485426;28;2316;-81
2021/08/19 00:06:23;;;;;;;;;;;17.10;99.90;;;16.13;84.93;95734.34;10504003;28;2348;-82
2021/08/19 00:11:25;;;;;;;;;;;17.10;99.90;;;16.04;86.12;95716.44;10512481;28;2545;-82
2021/08/19 00:16:28;;;;;;;;;;;17.00;99.90;;;16.03;86.68;95722.94;10508754;28;1925;-80
2021/08/19 00:21:31;;;;;;;;;;;17.00;99.90;;;16.03;87.13;95718.34;10503442;28;2325;-82
2021/08/19 00:26:34;;;;;;;;;;;17.00;99.90;;;16.12;86.89;95721.09;10496133;28;1966;-82
2021/08/19 00:31:37;;;;;;;;;;;17.00;99.90;;;16.10;86.80;95726.84;10488075;28;2349;-83
2021/08/19 00:36:40;;;;;;;;;;;17.00;99.90;;;16.14;86.28;95724.28;10511665;28;2211;-82
2021/08/19 00:41:43;;;;;;;;;;;17.00;99.90;;;16.12;86.29;95721.09;10491248;28;2270;-81
2021/08/19 00:46:45;;;;;;;;;;;17.10;99.90;;;16.13;86.14;95712.63;10501968;28;2223;-83
2021/08/19 00:51:48;;;;;;;;;;;17.10;99.90;;;16.08;86.07;95707.34;10507619;28;2282;-79
2021/08/19 00:56:51;;;;;;;;;;;17.00;99.90;;;16.11;86.15;95698.59;10508440;28;2313;-82
2021/08/19 01:01:56;;;;;;;;;;;17.00;99.90;;;16.12;85.53;95699.41;10507126;28;3814;-83
2021/08/19 01:07:00;;;;;;;;;;;17.00;99.90;;;16.09;86.01;95702.72;10496940;28;2252;-81
2021/08/19 01:12:03;;;;;;;;;;;17.00;99.90;;;16.09;85.98;95700.81;10540953;28;2251;-85
2021/08/19 01:17:06;;;;;;;;;;;17.00;99.90;;;16.07;86.46;95694.09;10519833;28;1312;-82
2021/08/19 01:22:09;;;;;;;;;;;17.00;99.90;;;16.15;86.05;95715.84;10535351;28;1868;-82
2021/08/19 01:27:12;;;;;;;;;;;17.00;99.90;;;16.03;86.53;95707.50;10505343;28;2077;-83
2021/08/19 01:32:14;;;;;;;;;;;17.00;99.90;;;16.00;87.17;95702.66;10505501;28;2332;-83
2021/08/19 01:37:17;;;;;;;;;;;17.00;99.90;;;15.89;88.22;95710.25;10505086;28;1874;-83
2021/08/19 01:42:20;;;;;;;;;;;16.90;99.90;;;15.92;88.04;95708.84;10485070;28;2061;-84
2021/08/19 01:47:23;;;;;;;;;;;16.90;99.90;;;15.91;87.96;95704.53;10508772;28;2193;-83
2021/08/19 01:52:25;;;;;;;;;;;16.90;99.90;;;15.85;88.46;95712.00;10478467;28;2278;-81
2021/08/19 01:57:28;;;;;;;;;;;16.80;99.90;;;15.89;88.37;95702.13;10474678;28;2235;-83
2021/08/19 02:02:31;;;;;;;;;;;16.80;99.90;;;15.97;87.80;95707.91;10488718;28;2546;-81
2021/08/19 02:07:34;;;;;;;;;;;16.90;99.90;;;15.85;88.81;95711.19;10481227;28;2511;-82
2021/08/19 02:12:37;;;;;;;;;;;16.80;99.90;;;15.85;89.09;95708.47;10478841;28;2147;-83
2021/08/19 02:17:39;;;;;;;;;;;16.80;99.90;;;15.89;88.35;95712.16;10477479;28;2494;-83
2021/08/19 02:22:42;;;;;;;;;;;16.80;99.90;;;15.94;88.34;95709.34;10499038;28;2401;-81
2021/08/19 02:27:45;;;;;;;;;;;16.80;99.90;;;15.84;88.87;95715.00;10508638;28;2463;-81
2021/08/19 02:32:52;;;;;;;;;;;16.80;99.90;;;15.94;88.46;95714.75;10503247;28;2618;-80
2021/08/19 02:37:56;;;;;;;;;;;16.80;99.90;;;15.86;88.41;95708.16;10496421;28;2145;-79
2021/08/19 02:42:58;;;;;;;;;;;16.90;99.90;;;15.83;88.72;95707.97;10507844;28;2464;-83
2021/08/19 02:48:01;;;;;;;;;;;16.80;99.90;;;15.89;88.93;95709.44;10493825;28;2507;-83
2021/08/19 02:53:04;;;;;;;;;;;16.80;99.90;;;15.93;87.91;95715.88;10495784;28;1926;-82
2021/08/19 02:58:07;;;;;;;;;;;16.90;99.90;;;16.03;87.00;95707.50;10486175;28;2535;-82
2021/08/19 03:03:09;;;;;;;;;;;16.90;99.90;;;16.00;86.42;95710.81;10503694;28;2521;-83
2021/08/19 03:08:12;;;;;;;;;;;16.90;99.90;;;16.03;86.54;95718.34;10493926;28;2561;-81
2021/08/19 03:13:15;;;;;;;;;;;16.90;99.90;;;15.99;86.50;95721.97;10505329;28;1925;-80
2021/08/19 03:18:18;;;;;;;;;;;16.90;99.90;;;15.87;87.01;95720.59;10499349;28;2214;-83
2021/08/19 03:23:21;;;;;;;;;;;16.90;99.90;;;15.89;87.38;95709.44;10508347;28;2134;-82
2021/08/19 03:28:24;;;;;;;;;;;16.80;99.90;;;15.98;86.33;95713.03;10485382;28;2564;-81
2021/08/19 03:33:26;;;;;;;;;;;16.90;99.90;;;15.90;86.36;95709.16;10501460;28;2177;-82
2021/08/19 03:38:29;;;;;;;;;;;16.90;99.90;;;15.90;86.15;95700.19;10506313;28;2478;-82
2021/08/19 03:43:32;;;;;;;;;;;16.90;99.90;;;15.89;86.30;95707.53;10514655;28;2239;-82
2021/08/19 03:48:34;;;;;;;;;;;16.80;99.90;;;15.86;86.41;95704.66;10513255;28;2483;-83
2021/08/19 03:53:37;;;;;;;;;;;16.80;99.90;;;15.81;86.18;95710.19;10513895;28;2393;-80
2021/08/19 03:58:40;;;;;;;;;;;16.80;99.90;;;15.75;86.45;95711.44;10498102;28;1917;-82
2021/08/19 04:03:42;;;;;;;;;;;16.70;99.90;;;15.74;86.79;95715.25;10486852;28;2194;-82
2021/08/19 04:08:45;;;;;;;;;;;16.70;99.90;;;15.92;86.79;95723.19;10486395;28;2539;-85
2021/08/19 04:13:50;;;;;;;;;;;16.70;99.90;;;15.83;86.10;95724.22;10486297;28;2665;-83
2021/08/19 04:18:52;;;;;;;;;;;16.70;99.90;;;15.78;86.16;95722.47;10500628;28;2102;-80
2021/08/19 04:23:55;;;;;;;;;;;16.70;99.90;;;15.73;86.47;95730.72;10479808;28;2503;-83
2021/08/19 04:28:58;;;;;;;;;;;16.70;99.90;;;15.75;86.50;95719.56;10510970;28;1985;-82
2021/08/19 04:34:03;;;;;;;;;;;16.70;99.90;;;15.66;86.47;95731.13;10500190;28;2471;-80
2021/08/19 04:39:05;;;;;;;;;;;16.60;99.90;;;15.59;87.36;95722.59;10505999;28;2171;-82
2021/08/19 04:44:08;;;;;;;;;;;16.60;99.90;;;15.58;87.44;95714.75;10499155;28;2493;-82
2021/08/19 04:49:11;;;;;;;;;;;16.50;99.90;;;15.75;86.66;95733.09;10510687;28;2504;-81
2021/08/19 04:54:13;;;;;;;;;;;16.60;99.90;;;15.71;86.22;95729.41;10499543;28;2471;-81
2021/08/19 04:59:17;;;;;;;;;;;16.60;99.90;;;15.72;86.99;95728.31;10506884;28;2421;-83
2021/08/19 05:04:19;;;;;;;;;;;16.60;99.90;;;15.75;86.91;95723.06;10501366;28;2447;-83
2021/08/19 05:09:22;;;;;;;;;;;16.70;99.90;;;15.80;86.77;95730.28;10507517;28;1959;-82
2021/08/19 05:14:25;;;;;;;;;;;16.70;99.90;;;16.03;85.82;95734.59;10483059;28;2464;-82
2021/08/19 05:19:28;;;;;;;;;;;16.80;99.90;;;16.00;84.97;95724.38;10489557;28;1973;-82
2021/08/19 05:24:30;;;;;;;;;;;16.90;99.90;;;15.88;86.14;95733.03;10526141;28;2435;-83
2021/08/19 05:29:33;;;;;;;;;;;16.80;99.90;;;15.87;86.01;95734.16;10519944;28;2080;-80
2021/08/19 05:34:36;;;;;;;;;;;16.80;99.90;;;16.00;85.88;95732.50;10513893;28;2419;-83
2021/08/19 05:39:39;;;;;;;;;;;16.80;99.90;;;16.13;84.77;95734.34;10505929;28;2617;-84
2021/08/19 05:44:41;;;;;;;;;;;16.90;99.90;;;16.33;83.64;95740.34;10495984;28;2203;-84
2021/08/19 05:49:45;;;;;;;;;;;17.00;99.90;;;16.69;82.76;95738.31;10480597;28;2102;-80
2021/08/19 05:54:48;;;;;;;;;;;17.20;99.90;;;16.84;80.85;95736.31;10507935;28;2408;-84
2021/08/19 05:59:52;;;;;;;;;;;17.50;99.90;;;17.00;80.39;95740.19;10503364;28;2396;-81
2021/08/19 06:04:54;;;;;;;;;;;17.70;99.90;;;17.10;79.56;95748.03;10504433;28;2483;-83
2021/08/19 06:09:57;;;;;;;;;;;17.80;99.90;;;17.31;78.78;95750.19;10488428;28;2477;-83
2021/08/19 06:15:00;;;;;;;;;;;17.90;99.90;;;17.37;78.46;95744.28;10499169;28;2487;-82
2021/08/19 06:20:03;;;;;;;;;;;18.00;99.90;;;17.54;77.31;95754.38;10476912;28;2161;-82
2021/08/19 06:25:06;;;;;;;;;;;18.20;99.90;;;17.47;77.46;95752.13;10490308;28;2464;-83
2021/08/19 06:30:08;;;;;;;;;;;18.20;99.90;;;17.44;77.43;95749.25;10495092;28;2482;-82
2021/08/19 06:35:11;;;;;;;;;;;18.20;99.90;;;17.38;77.57;95745.09;10482568;28;2516;-82
2021/08/19 06:40:14;;;;;;;;;;;18.20;99.90;;;17.44;77.40;95755.47;10498939;28;2099;-84
2021/08/19 06:45:17;;;;;;;;;;;18.20;99.90;;;17.50;77.31;95758.84;10488371;28;2436;-81
2021/08/19 06:50:19;;;;;;;;;;;18.20;99.90;;;17.73;76.33;95760.31;10483379;28;2229;-82
2021/08/19 06:55:22;;;;;;;;;;;18.30;99.90;;;17.82;75.39;95758.44;10474167;28;2584;-83
2021/08/19 07:00:25;;;;;;;;;;;18.50;99.90;;;17.95;74.49;95750.44;10489178;28;2357;-79
2021/08/19 07:05:29;;;;;;;;;;;18.50;99.90;;;17.95;75.24;95750.44;10507775;28;2554;-83
2021/08/19 07:10:34;;;;;;;;;;;18.60;99.90;;;18.11;74.03;95746.06;10481174;28;2158;-85
2021/08/19 07:15:41;;;;;;;;;;;18.80;99.90;;;17.97;73.67;95753.63;10480889;28;2460;-84
2021/08/19 07:20:44;;;;;;;;;;;18.90;99.90;;;18.41;73.00;95755.16;10499576;28;2463;-85
2021/08/19 07:25:48;;;;;;;;;;;19.00;99.90;;;18.36;72.60;95756.13;10533330;28;2439;-81
2021/08/19 07:30:51;;;;;;;;;;;19.00;99.90;;;18.67;71.76;95746.94;10530908;28;1917;-85
2021/08/19 07:35:54;;;;;;;;;;;19.10;99.90;;;18.71;71.20;95747.09;10525238;28;2503;-84
2021/08/19 07:40:57;;;;;;;;;;;19.30;99.90;;;19.02;70.43;95747.59;10481998;28;2451;-83
2021/08/19 07:45:59;;;;;;;;;;;19.50;99.90;;;19.29;68.99;95745.53;10481120;28;2427;-82
2021/08/19 07:51:02;;;;;;;;;;;19.70;99.90;;;19.72;68.28;95734.34;10506090;28;2494;-85
2021/08/19 07:56:06;;;;;;;;;;;20.10;99.90;;;19.45;67.67;95747.34;10493796;28;2452;-84
2021/08/19 08:01:09;;;;;;;;;;;20.10;99.90;;;19.35;68.81;95750.47;10535641;28;2266;-83
2021/08/19 08:06:12;;;;;;;;;;;19.90;99.90;;;19.08;69.75;95756.38;10511163;28;2459;-82
2021/08/19 08:11:15;;;;;;;;;;;19.90;99.90;;;19.21;68.73;95760.78;10532226;28;2538;-85
2021/08/19 08:16:18;;;;;;;;;;;19.90;99.90;;;19.57;67.26;95759.47;10524566;28;2500;-83
2021/08/19 08:21:21;;;;;;;;;;;20.10;99.90;;;19.80;65.85;95762.72;10512492;28;1983;-84
2021/08/19 08:26:25;;;;;;;;;;;20.30;99.90;;;20.11;65.11;95767.75;10525576;28;2416;-82
2021/08/19 08:31:27;;;;;;;;;;;20.60;99.90;;;20.35;63.22;95764.31;10548335;28;2580;-84
2021/08/19 08:36:30;;;;;;;;;;;20.70;99.90;;;20.93;61.25;95778.81;10506401;28;1540;-83
2021/08/19 08:41:34;;;;;;;;;;;21.10;99.90;;;21.16;59.34;95782.72;10533864;28;2024;-83
2021/08/19 08:46:40;;;;;;;;;;;21.50;99.90;;;21.20;59.87;95778.16;10480795;28;2185;-80
2021/08/19 08:51:46;;;;;;;;;;;21.60;99.90;;;20.91;59.91;95778.34;10497828;28;2431;-80
2021/08/19 08:56:50;;;;;;;;;;;21.40;99.90;;;21.40;59.13;95786.63;10500678;28;2555;-84
2021/08/19 09:01:53;;;;;;;;;;;21.50;99.90;;;21.70;57.85;95787.97;10492400;28;2494;-81
2021/08/19 09:06:57;;;;;;;;;;;21.90;99.90;;;21.40;58.79;95781.94;10504370;28;2511;-81
2021/08/19 09:12:00;;;;;;;;;;;22.00;99.90;;;21.49;57.98;95785.34;10502423;28;2253;-84
2021/08/19 09:17:02;;;;;;;;;;;21.80;99.90;;;21.46;58.34;95785.25;10499313;28;2427;-83
2021/08/19 09:22:06;;;;;;;;;;;21.80;99.90;;;21.26;57.25;95789.69;10511283;28;2280;-83
2021/08/19 09:27:08;;;;;;;;;;;21.90;99.90;;;21.90;54.41;95783.47;10519301;28;2589;-83
2021/08/19 09:32:11;;;;;;;;;;;22.10;99.90;;;21.09;57.11;95777.00;10490682;28;2041;-83
2021/08/19 09:37:14;;;;;;;;;;;22.20;99.90;;;21.41;57.16;95771.81;10521910;28;2292;-83
2021/08/19 09:42:17;;;;;;;;;;;22.00;99.90;;;21.29;54.66;95775.34;10481856;28;2334;-83
2021/08/19 09:47:20;;;;;;;;;;;22.00;99.90;;;21.04;51.89;95778.03;10491635;28;2161;-81
2021/08/19 09:52:22;;;;;;;;;;;21.90;99.90;;;21.73;50.37;95775.53;10490014;28;2370;-83
2021/08/19 09:57:25;;;;;;;;;;;22.00;99.90;;;22.38;50.29;95770.78;10481548;28;2274;-83
2021/08/19 10:02:31;;;;;;;;;;;22.40;99.90;;;22.65;50.33;95769.97;10479406;28;2352;-82
2021/08/19 10:07:34;;;;;;;;;;;23.00;99.90;;;22.74;48.55;95769.00;10493100;28;2447;-82
2021/08/19 10:12:37;;;;;;;;;;;23.30;99.90;;;23.28;46.77;95762.94;10507383;28;2418;-81
2021/08/19 10:17:39;;;;;;;;;;;23.60;99.90;;;22.94;49.80;95759.78;10477421;28;2282;-83
2021/08/19 10:22:42;;;;;;;;;;;23.70;99.90;;;23.08;47.15;95767.56;10482153;28;2221;-83
2021/08/19 10:27:45;;;;;;;;;;;23.70;99.90;;;23.49;46.23;95763.47;10492525;28;2274;-82
2021/08/19 10:32:48;;;;;;;;;;;23.80;99.90;;;23.22;47.45;95753.38;10481577;28;2317;-81
2021/08/19 10:37:51;;;;;;;;;;;23.80;99.90;;;24.04;44.07;95742.31;10500939;28;2336;-82
2021/08/19 10:43:04;;;;;;;;;;;24.10;99.90;;;22.85;46.25;95742.69;10509325;28;1937;-80
2021/08/19 10:48:07;;;;;;;;;;;23.80;99.90;;;22.80;46.14;95737.47;10479242;28;2247;-81
2021/08/19 10:53:13;;;;;;;;;;;23.50;99.90;;;23.58;45.49;95733.88;10505823;28;2264;-81
2021/08/19 10:58:16;;;;;;;;;;;23.70;99.90;;;24.22;43.41;95737.22;10493961;28;2300;-83
2021/08/19 11:03:19;;;;;;;;;;;24.40;99.90;;;24.46;43.28;95730.63;10494845;28;2213;-82
2021/08/19 11:08:22;;;;;;;;;;;24.70;99.90;;;24.59;42.40;95734.03;10505018;28;2374;-82
2021/08/19 11:13:27;;;;;;;;;;;25.10;99.90;;;24.58;43.00;95719.47;10494644;28;2326;-83
2021/08/19 11:18:30;;;;;;;;;;;25.30;99.90;;;23.69;44.13;95721.22;10511624;28;2300;-81
2021/08/19 11:23:33;;;;;;;;;;;25.00;99.90;;;22.56;47.42;95716.50;10500955;28;2366;-79
2021/08/19 11:28:35;;;;;;;;;;;23.90;99.90;;;22.29;49.95;95716.19;10509811;28;2251;-83
2021/08/19 11:33:39;;;;;;;;;;;23.30;99.90;;;22.09;49.35;95708.97;10511542;28;2395;-83
2021/08/19 11:38:46;;;;;;;;;;;23.00;99.90;;;21.65;49.15;95716.28;10524272;28;2460;-84
2021/08/19 11:43:48;;;;;;;;;;;22.80;99.90;;;21.55;49.01;95721.06;10532372;28;2375;-82
2021/08/19 11:48:51;;;;;;;;;;;22.50;99.90;;;21.63;49.95;95715.81;10529867;28;2388;-82
2021/08/19 11:53:54;;;;;;;;;;;22.60;99.90;;;21.30;50.99;95714.03;10535419;28;2269;-84
2021/08/19 11:58:57;;;;;;;;;;;22.20;99.90;;;22.04;50.06;95718.19;10510269;28;1931;-84
2021/08/19 12:03:59;;;;;;;;;;;22.40;99.90;;;22.46;48.51;95706.03;10505454;28;2253;-84
2021/08/19 12:09:02;;;;;;;;;;;23.10;99.90;;;22.63;47.22;95706.50;10510997;28;2325;-84
2021/08/19 12:14:05;;;;;;;;;;;23.50;99.90;;;23.24;46.82;95697.06;10499746;28;2276;-84
2021/08/19 12:19:08;;;;;;;;;;;23.70;99.90;;;23.45;45.39;95692.03;10518948;28;2277;-80
2021/08/19 12:24:11;;;;;;;;;;;24.10;99.90;;;22.88;46.87;95700.88;10533226;28;2305;-84
2021/08/19 12:29:13;;;;;;;;;;;23.70;99.90;;;22.80;46.60;95690.88;10523541;28;2539;-83
2021/08/19 12:34:16;;;;;;;;;;;23.50;99.90;;;22.70;47.99;95694.13;10519168;28;2419;-83
2021/08/19 12:39:19;;;;;;;;;;;23.40;99.90;;;23.44;44.56;95684.19;10536265;28;2678;-84
2021/08/19 12:44:22;;;;;;;;;;;23.70;99.90;;;23.01;47.49;95682.41;10506061;28;2092;-84
2021/08/19 12:49:28;;;;;;;;;;;24.00;99.90;;;22.40;47.83;95689.09;10501426;28;2418;-83
2021/08/19 12:54:30;;;;;;;;;;;23.50;99.90;;;22.25;48.20;95685.16;10469321;28;2236;-84
2021/08/19 12:59:34;;;;;;;;;;;23.40;99.90;;;22.80;45.81;95677.19;10502915;28;2266;-81
2021/08/19 13:04:38;;;;;;;;;;;23.50;99.90;;;23.10;47.01;95675.59;10506888;28;2347;-84
2021/08/19 13:09:41;;;;;;;;;;;23.70;99.90;;;23.82;45.19;95668.94;10508548;28;2296;-85
2021/08/19 13:14:43;;;;;;;;;;;24.10;99.90;;;24.93;42.61;95663.53;10503276;28;2316;-85
2021/08/19 13:19:46;;;;;;;;;;;24.90;99.90;;;24.09;43.37;95658.88;10490800;28;1993;-84
2021/08/19 13:24:49;;;;;;;;;;;25.20;99.90;;;23.80;44.36;95663.03;10516795;28;2305;-84
2021/08/19 13:29:54;;;;;;;;;;;24.80;99.90;;;23.99;44.64;95663.81;10505906;28;2209;-84
2021/08/19 13:34:56;;;;;;;;;;;24.60;99.90;;;23.96;43.88;95652.75;10482803;28;2245;-84
2021/08/19 13:39:59;;;;;;;;;;;24.80;99.90;;;23.97;43.74;95649.63;10503389;28;2653;-81
2021/08/19 13:45:02;;;;;;;;;;;24.80;99.90;;;23.93;44.06;95651.53;10504700;28;2354;-84
2021/08/19 13:50:04;;;;;;;;;;;24.70;99.90;;;24.11;42.58;95643.66;10501170;28;2295;-84
2021/08/19 13:55:07;;;;;;;;;;;24.90;99.90;;;23.74;43.47;95643.31;10484889;28;1910;-83
2021/08/19 14:00:10;;;;;;;;;;;24.80;99.90;;;23.51;44.83;95640.44;10480802;28;2229;-84
2021/08/19 14:05:13;;;;;;;;;;;24.50;99.90;;;23.71;45.10;95633.81;10504844;28;2332;-84
2021/08/19 14:10:16;;;;;;;;;;;24.50;99.90;;;24.22;42.52;95643.81;10501570;28;2244;-84
2021/08/19 14:15:18;;;;;;;;;;;24.70;99.90;;;25.16;39.98;95634.06;10498416;28;2371;-84
2021/08/19 14:20:21;;;;;;;;;;;25.40;99.90;;;24.07;42.98;95629.03;10497581;28;2319;-86
2021/08/19 14:25:24;;;;;;;;;;;25.30;99.90;;;23.67;44.28;95632.97;10493206;28;2386;-83
2021/08/19 14:30:27;;;;;;;;;;;24.70;99.90;;;23.28;45.01;95634.06;10482114;28;2200;-84
2021/08/19 14:35:29;;;;;;;;;;;24.20;99.90;;;22.81;45.80;95634.91;10485274;28;2402;-84
2021/08/19 14:40:32;;;;;;;;;;;23.70;99.90;;;23.26;45.01;95631.66;10500033;28;2285;-85
2021/08/19 14:45:35;;;;;;;;;;;24.00;99.90;;;22.98;46.06;95629.09;10497219;28;2415;-84
2021/08/19 14:50:38;;;;;;;;;;;23.90;99.90;;;22.46;47.48;95619.22;10505420;28;2349;-83
2021/08/19 14:55:41;;;;;;;;;;;23.60;99.90;;;21.73;50.05;95625.06;10506646;28;2568;-84
2021/08/19 15:00:44;;;;;;;;;;;23.10;99.90;;;21.70;49.67;95621.09;10485948;28;2498;-83
2021/08/19 15:05:47;;;;;;;;;;;22.70;99.90;;;22.28;48.62;95624.25;10490683;28;2466;-82
2021/08/19 15:10:49;;;;;;;;;;;22.90;99.90;;;22.88;46.96;95624.16;10524052;28;2487;-83
2021/08/19 15:15:52;;;;;;;;;;;23.20;99.90;;;23.18;46.27;95622.50;10492303;28;2442;-82
2021/08/19 15:20:55;;;;;;;;;;;23.60;99.90;;;23.24;47.08;95619.47;10513120;28;2486;-83
2021/08/19 15:25:58;;;;;;;;;;;23.70;99.90;;;23.18;47.84;95617.00;10522792;28;2388;-82
2021/08/19 15:31:00;;;;;;;;;;;24.00;99.90;;;22.98;48.19;95622.81;10541211;28;2602;-83
2021/08/19 15:36:03;;;;;;;;;;;23.80;99.90;;;23.01;48.89;95620.16;10525802;28;1885;-82
2021/08/19 15:41:06;;;;;;;;;;;23.70;99.90;;;22.86;49.42;95618.22;10537476;28;2855;-84
2021/08/19 15:46:09;;;;;;;;;;;23.70;99.90;;;22.74;49.34;95612.84;10526565;28;2474;-80
2021/08/19 15:51:12;;;;;;;;;;;23.80;99.90;;;22.69;49.50;95610.34;10525163;28;2451;-83
2021/08/19 15:56:17;;;;;;;;;;;23.70;99.90;;;22.60;50.44;95607.81;10513814;28;2348;-80
2021/08/19 16:01:20;;;;;;;;;;;23.60;99.90;;;22.38;51.04;95614.69;10482378;28;2143;-79
2021/08/19 16:06:23;;;;;;;;;;;23.30;99.90;;;22.55;50.92;95616.28;10507588;28;2530;-81
2021/08/19 16:11:26;;;;;;;;;;;23.20;99.90;;;22.52;51.00;95620.53;10470660;28;2554;-80
2021/08/19 16:16:28;;;;;;;;;;;23.20;99.90;;;22.12;52.72;95621.47;10494323;28;2414;-80
2021/08/19 16:21:31;;;;;;;;;;;23.10;99.90;;;21.86;53.08;95624.66;10495109;28;2411;-80
2021/08/19 16:26:34;;;;;;;;;;;22.80;99.90;;;21.73;53.52;95614.91;10495519;28;2431;-77
2021/08/19 16:31:36;;;;;;;;;;;22.70;99.90;;;21.67;53.49;95605.38;10507684;28;2249;-79
2021/08/19 16:36:39;;;;;;;;;;;22.70;99.90;;;21.46;53.98;95602.84;10509527;28;2522;-77
2021/08/19 16:41:42;;;;;;;;;;;22.50;99.90;;;21.02;55.35;95608.16;10491296;28;2449;-78
2021/08/19 16:46:44;;;;;;;;;;;22.20;99.90;;;21.24;55.19;95606.84;10499721;28;2377;-78
2021/08/19 16:51:47;;;;;;;;;;;22.10;99.90;;;21.26;55.06;95620.19;10504262;28;2411;-79
2021/08/19 16:56:50;;;;;;;;;;;22.10;99.90;;;21.27;55.21;95613.56;10503393;28;2443;-78
2021/08/19 17:01:56;;;;;;;;;;;22.20;99.90;;;21.20;55.06;95616.88;10505276;28;2427;-80
2021/08/19 17:06:59;;;;;;;;;;;22.10;99.90;;;21.01;55.47;95613.97;10490576;28;2349;-80
2021/08/19 17:12:03;;;;;;;;;;;22.00;99.90;;;20.97;55.75;95618.50;10508656;28;2533;-80
2021/08/19 17:17:06;;;;;;;;;;;21.90;99.90;;;20.73;56.87;95622.06;10492794;28;2414;-80
2021/08/19 17:22:08;;;;;;;;;;;21.70;99.90;;;20.65;57.15;95625.72;10489835;28;2333;-79
2021/08/19 17:27:11;;;;;;;;;;;21.70;99.90;;;20.57;57.23;95626.63;10505335;28;2392;-79
2021/08/19 17:32:14;;;;;;;;;;;21.60;99.90;;;20.41;57.72;95629.97;10504851;28;2400;-81
2021/08/19 17:37:17;;;;;;;;;;;21.50;99.90;;;20.43;57.02;95629.66;10493123;28;2470;-80
2021/08/19 17:42:19;;;;;;;;;;;21.40;99.90;;;20.28;57.59;95622.91;10490546;28;2391;-80
2021/08/19 17:47:22;;;;;;;;;;;21.30;99.90;;;20.13;57.96;95618.13;10498412;28;2189;-79
2021/08/19 17:52:25;;;;;;;;;;;21.20;99.90;;;19.96;58.86;95610.91;10499901;28;2514;-80
2021/08/19 17:57:28;;;;;;;;;;;21.00;99.90;;;19.83;58.92;95612.00;10498948;28;2411;-78
2021/08/19 18:02:31;;;;;;;;;;;20.90;99.90;;;19.70;60.02;95619.34;10497504;28;2451;-81
2021/08/19 18:07:34;;;;;;;;;;;20.80;99.90;;;19.48;61.34;95616.97;10502434;28;2366;-81
2021/08/19 18:12:36;;;;;;;;;;;20.60;99.90;;;19.32;62.50;95624.94;10485662;28;2332;-79
2021/08/19 18:17:39;;;;;;;;;;;20.40;99.90;;;19.28;63.12;95619.38;10510092;28;2401;-80
2021/08/19 18:22:42;;;;;;;;;;;20.30;99.90;;;19.25;63.14;95624.69;10487780;28;2431;-81
2021/08/19 18:27:44;;;;;;;;;;;20.30;99.90;;;19.17;63.50;95629.88;10485362;28;2274;-79
2021/08/19 18:32:47;;;;;;;;;;;20.20;99.90;;;19.00;64.39;95624.53;10471205;28;2209;-80
2021/08/19 18:37:51;;;;;;;;;;;20.10;99.90;;;18.89;65.47;95634.22;10497036;28;2324;-79
2021/08/19 18:42:53;;;;;;;;;;;20.00;99.90;;;18.80;65.81;95641.66;10473483;28;2260;-79
2021/08/19 18:47:56;;;;;;;;;;;19.90;99.90;;;18.86;65.64;95643.06;10495873;28;2245;-77
2021/08/19 18:52:59;;;;;;;;;;;19.80;99.90;;;18.75;66.78;95642.63;10493360;28;2237;-79
2021/08/19 18:58:02;;;;;;;;;;;19.80;99.90;;;18.67;67.52;95657.09;10491495;28;2348;-78
2021/08/19 19:03:05;;;;;;;;;;;19.70;99.90;;;18.60;68.23;95654.84;10500296;28;2337;-79
2021/08/19 19:08:07;;;;;;;;;;;19.60;99.90;;;18.64;68.18;95661.25;10480806;28;2364;-78
2021/08/19 19:13:10;;;;;;;;;;;19.60;99.90;;;18.69;67.81;95663.00;10487940;28;2429;-77
2021/08/19 19:18:13;;;;;;;;;;;19.60;99.90;;;18.65;68.64;95672.94;10492669;28;2523;-79
2021/08/19 19:23:16;;;;;;;;;;;19.60;99.90;;;18.66;68.87;95671.81;10485355;28;2208;-80
2021/08/19 19:28:19;;;;;;;;;;;19.60;99.90;;;18.69;68.43;95668.44;10471386;28;2338;-78
2021/08/19 19:33:22;;;;;;;;;;;19.60;99.90;;;18.62;69.06;95668.94;10471929;28;2207;-78
2021/08/19 19:38:24;;;;;;;;;;;19.60;99.90;;;18.60;69.63;95678.56;10498418;28;2373;-78
2021/08/19 19:43:27;;;;;;;;;;;19.60;99.90;;;18.60;69.57;95681.28;10493575;28;2289;-77
2021/08/19 19:48:30;;;;;;;;;;;19.60;99.90;;;18.57;69.82;95682.72;10484167;28;2341;-80
2021/08/19 19:53:33;;;;;;;;;;;19.60;99.90;;;18.51;70.83;95688.66;10495514;28;2254;-78
2021/08/19 19:58:36;;;;;;;;;;;19.50;99.90;;;18.51;71.02;95694.09;10489205;28;2285;-78
2021/08/19 20:03:55;;;;;;;;;;;19.50;99.90;;;18.50;71.03;95690.59;10497418;28;2339;-79
2021/08/19 20:08:58;;;;;;;;;;;19.40;99.90;;;18.48;71.55;95695.56;10505382;28;2514;-78
2021/08/19 20:14:01;;;;;;;;;;;19.50;99.90;;;18.44;72.04;95704.69;10509666;28;2315;-78
2021/08/19 20:19:03;;;;;;;;;;;19.40;99.90;;;18.39;72.42;95694.81;10492303;28;2214;-78
2021/08/19 20:24:06;;;;;;;;;;;19.40;99.90;;;18.46;72.45;95692.38;10484179;28;2248;-79
2021/08/19 20:29:09;;;;;;;;;;;19.40;99.90;;;18.40;72.29;95682.00;10499203;28;2368;-78
2021/08/19 20:34:11;;;;;;;;;;;19.40;99.90;;;18.36;72.25;95698.16;10489034;28;2425;-80
2021/08/19 20:39:14;;;;;;;;;;;19.40;99.90;;;18.40;72.18;95698.34;10471434;28;2389;-78
2021/08/19 20:44:17;;;;;;;;;;;19.30;99.90;;;18.33;72.16;95705.06;10492718;28;2496;-79
2021/08/19 20:49:19;;;;;;;;;;;19.30;99.90;;;18.37;71.71;95710.66;10491994;28;2256;-79
2021/08/19 20:54:22;;;;;;;;;;;19.30;99.90;;;18.32;71.93;95706.19;10487939;28;2249;-78
2021/08/19 20:59:25;;;;;;;;;;;19.30;99.90;;;18.31;72.14;95715.47;10468206;28;2415;-79
2021/08/19 21:04:27;;;;;;;;;;;19.20;99.90;;;18.34;72.63;95714.81;10492767;28;2511;-79
2021/08/19 21:09:30;;;;;;;;;;;19.20;99.90;;;18.41;71.93;95716.25;10485189;28;2324;-78
2021/08/19 21:14:34;;;;;;;;;;;19.30;99.90;;;18.32;71.97;95717.09;10489575;28;2455;-78
2021/08/19 21:19:36;;;;;;;;;;;19.20;99.90;;;18.28;71.64;95716.13;10501323;28;2458;-79
2021/08/19 21:24:39;;;;;;;;;;;19.20;99.90;;;18.25;71.65;95714.03;10507818;28;2487;-80
2021/08/19 21:29:42;;;;;;;;;;;19.20;99.90;;;18.20;71.84;95722.41;10502803;28;2301;-78
2021/08/19 21:34:44;;;;;;;;;;;19.10;99.90;;;18.22;71.78;95724.78;10499245;28;2391;-81
2021/08/19 21:39:47;;;;;;;;;;;19.10;99.90;;;18.17;71.61;95714.88;10495723;28;2272;-80
2021/08/19 21:44:50;;;;;;;;;;;19.10;99.90;;;18.05;71.73;95720.97;10484005;28;2676;-77
2021/08/19 21:49:52;;;;;;;;;;;19.00;99.90;;;18.08;72.17;95719.53;10495309;28;2382;-79
2021/08/19 21:54:55;;;;;;;;;;;19.00;99.90;;;18.05;72.19;95720.97;10489864;28;2332;-80
2021/08/19 21:59:58;;;;;;;;;;;19.00;99.90;;;18.05;72.90;95722.88;10475552;28;2388;-80
2021/08/19 22:05:01;;;;;;;;;;;19.00;99.90;;;18.00;73.50;95739.34;10543310;28;2288;-81
2021/08/19 22:10:04;;;;;;;;;;;19.00;99.90;;;18.11;73.18;95732.47;10529049;28;1969;-79
2021/08/19 22:15:07;;;;;;;;;;;19.00;99.90;;;18.08;74.17;95730.41;10494452;28;1996;-81
2021/08/19 22:20:09;;;;;;;;;;;19.00;99.90;;;18.15;73.10;95738.88;10490396;28;2317;-80
2021/08/19 22:25:12;;;;;;;;;;;19.00;99.90;;;18.08;73.45;95730.41;10488718;28;2276;-78
2021/08/19 22:30:15;;;;;;;;;;;19.00;99.90;;;18.02;73.31;95731.69;10493199;28;2344;-81
2021/08/19 22:35:18;;;;;;;;;;;19.00;99.90;;;18.07;73.69;95734.25;10487831;28;2289;-78
2021/08/19 22:40:20;;;;;;;;;;;19.00;99.90;;;18.02;72.46;95729.78;10486326;28;2508;-80
2021/08/19 22:45:23;;;;;;;;;;;19.00;99.90;;;17.99;72.49;95726.88;10480029;28;2653;-80
2021/08/19 22:50:26;;;;;;;;;;;19.00;99.90;;;18.01;72.79;95716.50;10490281;28;2392;-77
2021/08/19 22:55:29;;;;;;;;;;;18.90;99.90;;;17.99;73.51;95722.25;10474057;28;2735;-78
2021/08/19 23:00:31;;;;;;;;;;;18.90;99.90;;;18.24;73.04;95717.88;10485098;28;2374;-78
2021/08/19 23:05:34;;;;;;;;;;;18.90;99.90;;;18.24;73.16;95728.75;10462779;28;2248;-79
2021/08/19 23:10:38;;;;;;;;;;;19.10;99.90;;;18.13;73.69;95732.94;10490982;28;2093;-78